首页
METAR-TAF:

METAR-TAF

机场 :

薩拉熱窩國際機場

塞拉耶佛, 波斯尼亚和黑塞哥维那

纬度: 43-49N, 经度: 018-20E, 海拔: 511米

当前天气观测

该预报发布于28分钟前的07:30 UTC
风速2节,风向多变
温度 3°C
湿度 81%
气压 1013 hPa
能见度10公里或以上
1500米以下无云,无积雨云

METAR: LQSA 030730Z VRB02KT CAVOK 03/M00 Q1013

时间: 09:58 (07:58 UTC)

预报

该预报发布于1小时和53分钟前的06:05 UTC
预报有效从03日的 06点(UTC)到 04日的 06点(UTC)
风速5节,风向东转东北
能见度10公里或以上
1500米以下无云,无积雨云

TAF: LQSA 030605Z 0306/0406 06005KT CAVOK TX12/0313Z TNM03/0403Z

超过4000个机场的气象观测和天气预报(METAR&TAF报告)。

可查询的气象台以黄色和红色小点在地图上表示。

将鼠标移到小点上方,可查看气象台名称。

然后点击查看天气观测和预报。

如需切换地图:点击带黑十字的绿色按钮放大地图;点击带横线的绿色按钮缩小地图;或者点击绿色箭头查看邻近地区的地图。


METAR-TAF: